sensor_id;sensor_type;location;lat;lon;timestamp;pressure;altitude;pressure_sealevel;temperature;humidity
13594;BME280;6449;47.666;9.160;2022-11-15T00:01:24;96824.44;;;7.96;100.00
13594;BME280;6449;47.666;9.160;2022-11-15T00:06:21;96818.97;;;7.73;100.00
13594;BME280;6449;47.666;9.160;2022-11-15T00:11:17;96812.75;;;7.88;100.00
13594;BME280;6449;47.666;9.160;2022-11-15T00:16:11;96826.41;;;7.92;100.00
13594;BME280;6449;47.666;9.160;2022-11-15T00:21:09;96821.13;;;7.94;100.00
13594;BME280;6449;47.666;9.160;2022-11-15T00:26:04;96821.94;;;7.94;100.00
13594;BME280;6449;47.666;9.160;2022-11-15T00:31:01;96816.31;;;8.13;100.00
13594;BME280;6449;47.666;9.160;2022-11-15T00:36:03;96818.81;;;8.02;100.00
13594;BME280;6449;47.666;9.160;2022-11-15T00:41:02;96805.47;;;8.06;100.00
13594;BME280;6449;47.666;9.160;2022-11-15T00:46:04;96809.97;;;8.04;100.00
13594;BME280;6449;47.666;9.160;2022-11-15T00:50:57;96809.22;;;8.02;100.00
13594;BME280;6449;47.666;9.160;2022-11-15T00:55:55;96803.16;;;8.02;100.00
13594;BME280;6449;47.666;9.160;2022-11-15T01:00:51;96797.50;;;8.08;100.00
13594;BME280;6449;47.666;9.160;2022-11-15T01:05:48;96792.81;;;8.13;100.00
13594;BME280;6449;47.666;9.160;2022-11-15T01:10:43;96803.16;;;8.02;100.00
13594;BME280;6449;47.666;9.160;2022-11-15T01:15:40;96795.31;;;8.02;100.00
13594;BME280;6449;47.666;9.160;2022-11-15T01:20:42;96796.75;;;7.93;100.00
13594;BME280;6449;47.666;9.160;2022-11-15T01:25:41;96787.56;;;7.87;100.00
13594;BME280;6449;47.666;9.160;2022-11-15T01:30:38;96778.59;;;7.92;100.00
13594;BME280;6449;47.666;9.160;2022-11-15T01:35:53;96770.47;;;7.96;100.00
13594;BME280;6449;47.666;9.160;2022-11-15T01:40:47;96772.66;;;7.90;100.00
13594;BME280;6449;47.666;9.160;2022-11-15T01:45:55;96766.19;;;7.95;100.00
13594;BME280;6449;47.666;9.160;2022-11-15T01:50:53;96761.34;;;7.76;100.00
13594;BME280;6449;47.666;9.160;2022-11-15T01:55:49;96757.50;;;7.82;100.00
13594;BME280;6449;47.666;9.160;2022-11-15T02:00:43;96748.19;;;7.65;100.00
13594;BME280;6449;47.666;9.160;2022-11-15T02:05:43;96743.31;;;7.73;100.00
13594;BME280;6449;47.666;9.160;2022-11-15T02:10:47;96736.91;;;7.77;100.00
13594;BME280;6449;47.666;9.160;2022-11-15T02:16:00;96739.41;;;7.53;100.00
13594;BME280;6449;47.666;9.160;2022-11-15T02:21:22;96741.50;;;7.61;100.00
13594;BME280;6449;47.666;9.160;2022-11-15T02:32:40;96706.78;;;7.73;100.00
13594;BME280;6449;47.666;9.160;2022-11-15T02:37:44;96708.34;;;7.63;100.00
13594;BME280;6449;47.666;9.160;2022-11-15T02:42:50;96703.41;;;7.71;100.00
13594;BME280;6449;47.666;9.160;2022-11-15T02:48:15;96703.72;;;7.67;100.00
13594;BME280;6449;47.666;9.160;2022-11-15T02:53:15;96708.22;;;7.52;100.00
13594;BME280;6449;47.666;9.160;2022-11-15T02:59:06;96714.88;;;7.56;100.00
13594;BME280;6449;47.666;9.160;2022-11-15T03:04:21;96719.44;;;7.40;100.00
13594;BME280;6449;47.666;9.160;2022-11-15T03:09:30;96703.53;;;7.57;100.00
13594;BME280;6449;47.666;9.160;2022-11-15T03:14:34;96705.38;;;7.55;100.00
13594;BME280;6449;47.666;9.160;2022-11-15T03:19:42;96699.97;;;7.58;100.00
13594;BME280;6449;47.666;9.160;2022-11-15T03:24:45;96693.19;;;7.55;100.00
13594;BME280;6449;47.666;9.160;2022-11-15T03:29:47;96680.16;;;7.68;100.00
13594;BME280;6449;47.666;9.160;2022-11-15T03:34:56;96688.50;;;7.60;100.00
13594;BME280;6449;47.666;9.160;2022-11-15T03:39:55;96673.78;;;7.72;100.00
13594;BME280;6449;47.666;9.160;2022-11-15T03:44:59;96678.09;;;7.73;100.00
13594;BME280;6449;47.666;9.160;2022-11-15T03:50:07;96678.78;;;7.75;100.00
13594;BME280;6449;47.666;9.160;2022-11-15T03:55:07;96677.56;;;7.68;100.00
13594;BME280;6449;47.666;9.160;2022-11-15T04:00:05;96680.34;;;7.65;100.00
13594;BME280;6449;47.666;9.160;2022-11-15T04:05:00;96675.66;;;7.70;100.00
13594;BME280;6449;47.666;9.160;2022-11-15T04:09:55;96679.13;;;7.58;100.00
13594;BME280;6449;47.666;9.160;2022-11-15T04:15:00;96659.72;;;7.62;100.00
13594;BME280;6449;47.666;9.160;2022-11-15T04:20:11;96659.28;;;7.55;100.00
13594;BME280;6449;47.666;9.160;2022-11-15T04:25:22;96659.28;;;7.43;100.00
13594;BME280;6449;47.666;9.160;2022-11-15T04:30:23;96656.78;;;7.54;100.00
13594;BME280;6449;47.666;9.160;2022-11-15T04:35:17;96656.16;;;7.63;100.00
13594;BME280;6449;47.666;9.160;2022-11-15T04:40:11;96649.34;;;7.60;100.00
13594;BME280;6449;47.666;9.160;2022-11-15T04:45:08;96645.19;;;7.58;100.00
13594;BME280;6449;47.666;9.160;2022-11-15T04:50:05;96653.97;;;7.57;100.00
13594;BME280;6449;47.666;9.160;2022-11-15T04:55:03;96654.56;;;7.60;100.00
13594;BME280;6449;47.666;9.160;2022-11-15T05:00:10;96653.00;;;7.45;100.00
13594;BME280;6449;47.666;9.160;2022-11-15T05:05:05;96657.91;;;7.37;100.00
13594;BME280;6449;47.666;9.160;2022-11-15T05:09:59;96655.00;;;7.42;100.00
13594;BME280;6449;47.666;9.160;2022-11-15T05:14:53;96656.56;;;7.31;100.00
13594;BME280;6449;47.666;9.160;2022-11-15T05:19:47;96658.75;;;7.38;100.00
13594;BME280;6449;47.666;9.160;2022-11-15T05:24:40;96655.31;;;7.37;100.00
13594;BME280;6449;47.666;9.160;2022-11-15T05:29:36;96640.81;;;7.46;100.00
13594;BME280;6449;47.666;9.160;2022-11-15T05:34:32;96640.28;;;7.41;100.00
13594;BME280;6449;47.666;9.160;2022-11-15T05:39:25;96639.88;;;7.47;100.00
13594;BME280;6449;47.666;9.160;2022-11-15T05:44:23;96634.56;;;7.48;100.00
13594;BME280;6449;47.666;9.160;2022-11-15T05:49:23;96627.97;;;7.43;100.00
13594;BME280;6449;47.666;9.160;2022-11-15T05:54:20;96625.38;;;7.43;100.00
13594;BME280;6449;47.666;9.160;2022-11-15T05:59:19;96616.41;;;7.47;100.00
13594;BME280;6449;47.666;9.160;2022-11-15T06:04:13;96622.53;;;7.33;100.00
13594;BME280;6449;47.666;9.160;2022-11-15T06:09:10;96635.47;;;7.34;100.00
13594;BME280;6449;47.666;9.160;2022-11-15T06:14:05;96634.66;;;7.47;100.00
13594;BME280;6449;47.666;9.160;2022-11-15T06:18:59;96635.28;;;7.50;100.00
13594;BME280;6449;47.666;9.160;2022-11-15T06:23:56;96635.59;;;7.46;100.00
13594;BME280;6449;47.666;9.160;2022-11-15T06:28:50;96630.47;;;7.44;100.00
13594;BME280;6449;47.666;9.160;2022-11-15T06:33:44;96623.91;;;7.39;100.00
13594;BME280;6449;47.666;9.160;2022-11-15T06:38:41;96622.75;;;7.43;100.00
13594;BME280;6449;47.666;9.160;2022-11-15T06:43:36;96617.66;;;7.41;100.00
13594;BME280;6449;47.666;9.160;2022-11-15T06:48:30;96626.84;;;7.47;100.00
13594;BME280;6449;47.666;9.160;2022-11-15T06:53:30;96614.41;;;7.50;100.00
13594;BME280;6449;47.666;9.160;2022-11-15T06:58:25;96624.94;;;7.49;100.00
13594;BME280;6449;47.666;9.160;2022-11-15T07:03:18;96614.41;;;7.63;100.00
13594;BME280;6449;47.666;9.160;2022-11-15T07:08:11;96618.06;;;7.73;100.00
13594;BME280;6449;47.666;9.160;2022-11-15T07:13:06;96616.19;;;7.63;100.00
13594;BME280;6449;47.666;9.160;2022-11-15T07:18:01;96619.41;;;7.79;100.00
13594;BME280;6449;47.666;9.160;2022-11-15T07:23:00;96615.66;;;7.70;100.00
13594;BME280;6449;47.666;9.160;2022-11-15T07:27:58;96622.22;;;7.38;100.00
13594;BME280;6449;47.666;9.160;2022-11-15T07:32:56;96614.59;;;7.34;100.00
13594;BME280;6449;47.666;9.160;2022-11-15T07:37:55;96614.31;;;7.65;100.00
13594;BME280;6449;47.666;9.160;2022-11-15T07:42:49;96617.44;;;7.70;100.00
13594;BME280;6449;47.666;9.160;2022-11-15T07:47:49;96605.72;;;7.88;100.00
13594;BME280;6449;47.666;9.160;2022-11-15T07:52:45;96618.00;;;7.99;100.00
13594;BME280;6449;47.666;9.160;2022-11-15T07:57:38;96617.09;;;7.87;100.00
13594;BME280;6449;47.666;9.160;2022-11-15T08:02:32;96610.84;;;7.77;100.00
13594;BME280;6449;47.666;9.160;2022-11-15T08:07:29;96599.09;;;8.08;100.00
13594;BME280;6449;47.666;9.160;2022-11-15T08:12:24;96602.59;;;7.96;100.00
13594;BME280;6449;47.666;9.160;2022-11-15T08:17:18;96598.91;;;8.11;100.00
13594;BME280;6449;47.666;9.160;2022-11-15T08:22:11;96600.09;;;7.94;100.00
13594;BME280;6449;47.666;9.160;2022-11-15T08:27:05;96596.88;;;7.78;100.00
13594;BME280;6449;47.666;9.160;2022-11-15T08:32:08;96594.88;;;7.81;100.00
13594;BME280;6449;47.666;9.160;2022-11-15T08:37:02;96596.84;;;7.91;100.00
13594;BME280;6449;47.666;9.160;2022-11-15T08:41:55;96591.03;;;7.74;100.00
13594;BME280;6449;47.666;9.160;2022-11-15T08:46:48;96584.44;;;7.81;100.00
13594;BME280;6449;47.666;9.160;2022-11-15T08:51:43;96574.06;;;7.93;100.00
13594;BME280;6449;47.666;9.160;2022-11-15T08:56:37;96566.66;;;7.99;100.00
13594;BME280;6449;47.666;9.160;2022-11-15T09:01:30;96559.44;;;8.03;100.00
13594;BME280;6449;47.666;9.160;2022-11-15T09:06:24;96573.50;;;8.13;100.00
13594;BME280;6449;47.666;9.160;2022-11-15T09:11:19;96571.47;;;8.29;100.00
13594;BME280;6449;47.666;9.160;2022-11-15T09:16:16;96583.50;;;8.19;100.00
13594;BME280;6449;47.666;9.160;2022-11-15T09:21:15;96584.25;;;8.08;100.00
13594;BME280;6449;47.666;9.160;2022-11-15T09:26:13;96565.41;;;8.42;100.00
13594;BME280;6449;47.666;9.160;2022-11-15T09:31:10;96567.69;;;8.57;100.00
13594;BME280;6449;47.666;9.160;2022-11-15T09:36:10;96576.06;;;8.38;100.00
13594;BME280;6449;47.666;9.160;2022-11-15T09:46:48;96586.69;;;7.99;100.00
13594;BME280;6449;47.666;9.160;2022-11-15T09:52:13;96571.63;;;8.15;100.00
13594;BME280;6449;47.666;9.160;2022-11-15T09:57:15;96563.84;;;8.26;100.00
13594;BME280;6449;47.666;9.160;2022-11-15T10:02:36;96553.69;;;8.34;100.00
13594;BME280;6449;47.666;9.160;2022-11-15T10:07:50;96558.91;;;8.34;100.00
13594;BME280;6449;47.666;9.160;2022-11-15T10:12:49;96561.38;;;8.49;100.00
13594;BME280;6449;47.666;9.160;2022-11-15T10:18:14;96560.31;;;8.27;100.00
13594;BME280;6449;47.666;9.160;2022-11-15T10:23:14;96562.63;;;8.19;100.00
13594;BME280;6449;47.666;9.160;2022-11-15T10:28:26;96548.16;;;8.02;100.00
13594;BME280;6449;47.666;9.160;2022-11-15T10:33:31;96530.44;;;7.95;100.00
13594;BME280;6449;47.666;9.160;2022-11-15T10:38:26;96522.28;;;7.99;100.00
13594;BME280;6449;47.666;9.160;2022-11-15T10:43:21;96515.94;;;7.91;100.00
13594;BME280;6449;47.666;9.160;2022-11-15T10:48:28;96508.78;;;8.05;100.00
13594;BME280;6449;47.666;9.160;2022-11-15T10:53:29;96508.22;;;8.13;100.00
13594;BME280;6449;47.666;9.160;2022-11-15T10:58:39;96505.97;;;8.32;100.00
13594;BME280;6449;47.666;9.160;2022-11-15T11:03:40;96501.16;;;8.39;100.00
13594;BME280;6449;47.666;9.160;2022-11-15T11:08:34;96484.56;;;8.27;100.00
13594;BME280;6449;47.666;9.160;2022-11-15T11:13:35;96481.50;;;8.09;100.00
13594;BME280;6449;47.666;9.160;2022-11-15T11:18:35;96483.63;;;8.28;100.00
13594;BME280;6449;47.666;9.160;2022-11-15T11:23:51;96476.34;;;8.45;100.00
13594;BME280;6449;47.666;9.160;2022-11-15T11:29:10;96475.44;;;8.33;100.00
13594;BME280;6449;47.666;9.160;2022-11-15T11:34:17;96481.06;;;8.39;100.00
13594;BME280;6449;47.666;9.160;2022-11-15T11:39:29;96482.19;;;8.48;100.00
13594;BME280;6449;47.666;9.160;2022-11-15T11:44:40;96468.31;;;8.59;100.00
13594;BME280;6449;47.666;9.160;2022-11-15T11:49:44;96459.31;;;8.63;100.00
13594;BME280;6449;47.666;9.160;2022-11-15T11:54:58;96460.50;;;8.70;100.00
13594;BME280;6449;47.666;9.160;2022-11-15T12:00:03;96455.31;;;8.81;100.00
13594;BME280;6449;47.666;9.160;2022-11-15T12:05:10;96453.88;;;8.88;100.00
13594;BME280;6449;47.666;9.160;2022-11-15T12:10:20;96454.63;;;9.02;100.00
13594;BME280;6449;47.666;9.160;2022-11-15T12:15:20;96448.09;;;9.07;100.00
13594;BME280;6449;47.666;9.160;2022-11-15T12:20:18;96437.28;;;9.12;100.00
13594;BME280;6449;47.666;9.160;2022-11-15T12:25:20;96425.84;;;9.13;100.00
13594;BME280;6449;47.666;9.160;2022-11-15T12:30:17;96417.88;;;9.14;100.00
13594;BME280;6449;47.666;9.160;2022-11-15T12:35:26;96423.72;;;9.18;100.00
13594;BME280;6449;47.666;9.160;2022-11-15T12:40:34;96420.03;;;9.21;100.00
13594;BME280;6449;47.666;9.160;2022-11-15T12:45:31;96398.88;;;9.24;100.00
13594;BME280;6449;47.666;9.160;2022-11-15T12:50:54;96398.16;;;9.22;100.00
13594;BME280;6449;47.666;9.160;2022-11-15T12:56:23;96373.31;;;9.27;100.00
13594;BME280;6449;47.666;9.160;2022-11-15T13:01:59;96376.84;;;9.26;100.00
13594;BME280;6449;47.666;9.160;2022-11-15T13:06:59;96368.56;;;9.32;100.00
13594;BME280;6449;47.666;9.160;2022-11-15T13:11:55;96362.19;;;9.46;100.00
13594;BME280;6449;47.666;9.160;2022-11-15T13:16:49;96343.16;;;9.55;100.00
13594;BME280;6449;47.666;9.160;2022-11-15T13:21:51;96333.88;;;9.51;100.00
13594;BME280;6449;47.666;9.160;2022-11-15T13:27:14;96341.56;;;9.64;100.00
13594;BME280;6449;47.666;9.160;2022-11-15T13:32:11;96332.31;;;9.60;100.00
13594;BME280;6449;47.666;9.160;2022-11-15T13:37:12;96337.28;;;9.63;100.00
13594;BME280;6449;47.666;9.160;2022-11-15T13:42:22;96325.44;;;9.59;100.00
13594;BME280;6449;47.666;9.160;2022-11-15T13:47:19;96317.59;;;9.59;100.00
13594;BME280;6449;47.666;9.160;2022-11-15T13:52:14;96317.50;;;9.49;100.00
13594;BME280;6449;47.666;9.160;2022-11-15T13:57:14;96294.41;;;9.54;100.00
13594;BME280;6449;47.666;9.160;2022-11-15T14:02:15;96287.97;;;9.47;100.00
13594;BME280;6449;47.666;9.160;2022-11-15T14:07:17;96273.53;;;9.64;100.00
13594;BME280;6449;47.666;9.160;2022-11-15T14:12:29;96267.81;;;9.70;100.00
13594;BME280;6449;47.666;9.160;2022-11-15T14:17:37;96263.03;;;9.75;100.00
13594;BME280;6449;47.666;9.160;2022-11-15T14:22:51;96255.66;;;9.69;100.00
13594;BME280;6449;47.666;9.160;2022-11-15T14:28:15;96253.50;;;9.74;100.00
13594;BME280;6449;47.666;9.160;2022-11-15T14:33:24;96247.56;;;9.72;100.00
13594;BME280;6449;47.666;9.160;2022-11-15T14:38:18;96242.53;;;9.59;100.00
13594;BME280;6449;47.666;9.160;2022-11-15T14:43:13;96237.16;;;9.61;100.00
13594;BME280;6449;47.666;9.160;2022-11-15T14:48:07;96234.41;;;9.62;100.00
13594;BME280;6449;47.666;9.160;2022-11-15T14:53:01;96242.59;;;9.48;100.00
13594;BME280;6449;47.666;9.160;2022-11-15T14:57:54;96238.19;;;9.49;100.00
13594;BME280;6449;47.666;9.160;2022-11-15T15:02:53;96224.25;;;9.48;100.00
13594;BME280;6449;47.666;9.160;2022-11-15T15:07:47;96215.25;;;9.41;100.00
13594;BME280;6449;47.666;9.160;2022-11-15T15:12:41;96207.34;;;9.52;100.00
13594;BME280;6449;47.666;9.160;2022-11-15T15:17:36;96196.94;;;9.41;100.00
13594;BME280;6449;47.666;9.160;2022-11-15T15:22:31;96183.78;;;9.31;100.00
13594;BME280;6449;47.666;9.160;2022-11-15T15:27:24;96174.66;;;9.26;100.00
13594;BME280;6449;47.666;9.160;2022-11-15T15:32:17;96170.75;;;9.20;100.00
13594;BME280;6449;47.666;9.160;2022-11-15T15:37:23;96165.50;;;9.20;100.00
13594;BME280;6449;47.666;9.160;2022-11-15T15:42:18;96156.84;;;9.19;100.00
13594;BME280;6449;47.666;9.160;2022-11-15T15:47:13;96158.63;;;9.19;100.00
13594;BME280;6449;47.666;9.160;2022-11-15T15:52:08;96146.75;;;9.15;100.00
13594;BME280;6449;47.666;9.160;2022-11-15T15:57:01;96133.22;;;9.10;100.00
13594;BME280;6449;47.666;9.160;2022-11-15T16:01:56;96118.25;;;9.12;100.00
13594;BME280;6449;47.666;9.160;2022-11-15T16:06:49;96110.28;;;9.13;100.00
13594;BME280;6449;47.666;9.160;2022-11-15T16:11:46;96094.72;;;9.12;100.00
13594;BME280;6449;47.666;9.160;2022-11-15T16:16:39;96085.94;;;9.13;100.00
13594;BME280;6449;47.666;9.160;2022-11-15T16:21:36;96078.09;;;9.13;100.00
13594;BME280;6449;47.666;9.160;2022-11-15T16:26:35;96069.09;;;9.06;100.00
13594;BME280;6449;47.666;9.160;2022-11-15T16:31:30;96065.38;;;9.08;100.00
13594;BME280;6449;47.666;9.160;2022-11-15T16:36:26;96070.44;;;9.00;100.00
13594;BME280;6449;47.666;9.160;2022-11-15T16:41:23;96076.50;;;9.01;100.00
13594;BME280;6449;47.666;9.160;2022-11-15T16:46:19;96065.53;;;9.07;100.00
13594;BME280;6449;47.666;9.160;2022-11-15T16:51:13;96054.25;;;9.06;100.00
13594;BME280;6449;47.666;9.160;2022-11-15T16:56:20;96047.22;;;9.07;100.00
13594;BME280;6449;47.666;9.160;2022-11-15T17:01:21;96033.88;;;9.10;100.00
13594;BME280;6449;47.666;9.160;2022-11-15T17:06:15;96028.63;;;9.00;100.00
13594;BME280;6449;47.666;9.160;2022-11-15T17:11:15;96033.56;;;8.82;100.00
13594;BME280;6449;47.666;9.160;2022-11-15T17:16:11;96028.59;;;8.79;100.00
13594;BME280;6449;47.666;9.160;2022-11-15T17:21:11;96042.13;;;8.84;100.00
13594;BME280;6449;47.666;9.160;2022-11-15T17:26:06;96024.97;;;8.91;100.00
13594;BME280;6449;47.666;9.160;2022-11-15T17:31:19;96014.59;;;9.01;100.00
13594;BME280;6449;47.666;9.160;2022-11-15T17:36:14;95998.50;;;9.06;100.00
13594;BME280;6449;47.666;9.160;2022-11-15T17:41:12;95988.59;;;9.09;100.00
13594;BME280;6449;47.666;9.160;2022-11-15T17:46:10;95978.72;;;9.13;100.00
13594;BME280;6449;47.666;9.160;2022-11-15T17:51:09;95973.34;;;9.14;100.00
13594;BME280;6449;47.666;9.160;2022-11-15T17:56:07;95972.53;;;9.14;100.00
13594;BME280;6449;47.666;9.160;2022-11-15T18:01:06;95968.41;;;9.11;100.00
13594;BME280;6449;47.666;9.160;2022-11-15T18:05:59;95966.88;;;9.09;100.00
13594;BME280;6449;47.666;9.160;2022-11-15T18:11:04;95957.69;;;8.93;100.00
13594;BME280;6449;47.666;9.160;2022-11-15T18:15:58;95955.09;;;8.93;100.00
13594;BME280;6449;47.666;9.160;2022-11-15T18:21:00;95949.34;;;9.00;100.00
13594;BME280;6449;47.666;9.160;2022-11-15T18:25:54;95948.66;;;8.98;100.00
13594;BME280;6449;47.666;9.160;2022-11-15T18:30:49;95950.19;;;9.00;100.00
13594;BME280;6449;47.666;9.160;2022-11-15T18:35:42;95931.59;;;9.03;100.00
13594;BME280;6449;47.666;9.160;2022-11-15T18:40:36;95927.34;;;9.02;100.00
13594;BME280;6449;47.666;9.160;2022-11-15T18:45:29;95924.59;;;9.04;100.00
13594;BME280;6449;47.666;9.160;2022-11-15T18:50:24;95927.22;;;9.04;100.00
13594;BME280;6449;47.666;9.160;2022-11-15T18:55:17;95913.88;;;9.07;100.00
13594;BME280;6449;47.666;9.160;2022-11-15T19:00:13;95909.09;;;9.12;100.00
13594;BME280;6449;47.666;9.160;2022-11-15T19:05:07;95898.88;;;9.09;100.00
13594;BME280;6449;47.666;9.160;2022-11-15T19:10:02;95886.78;;;9.08;100.00
13594;BME280;6449;47.666;9.160;2022-11-15T19:14:55;95881.13;;;9.03;100.00
13594;BME280;6449;47.666;9.160;2022-11-15T19:19:48;95881.78;;;9.05;100.00
13594;BME280;6449;47.666;9.160;2022-11-15T19:24:42;95866.31;;;8.82;100.00
13594;BME280;6449;47.666;9.160;2022-11-15T19:29:37;95879.66;;;8.79;100.00
13594;BME280;6449;47.666;9.160;2022-11-15T19:34:31;95864.41;;;8.84;100.00
13594;BME280;6449;47.666;9.160;2022-11-15T19:39:24;95844.72;;;8.80;100.00
13594;BME280;6449;47.666;9.160;2022-11-15T19:44:18;95848.59;;;8.86;100.00
13594;BME280;6449;47.666;9.160;2022-11-15T19:49:13;95841.31;;;8.89;100.00
13594;BME280;6449;47.666;9.160;2022-11-15T19:54:06;95849.41;;;8.86;100.00
13594;BME280;6449;47.666;9.160;2022-11-15T19:59:02;95834.25;;;8.80;100.00
13594;BME280;6449;47.666;9.160;2022-11-15T20:04:00;95821.63;;;8.85;100.00
13594;BME280;6449;47.666;9.160;2022-11-15T20:08:56;95816.41;;;8.85;100.00
13594;BME280;6449;47.666;9.160;2022-11-15T20:13:56;95804.03;;;8.87;100.00
13594;BME280;6449;47.666;9.160;2022-11-15T20:18:53;95796.88;;;8.89;100.00
13594;BME280;6449;47.666;9.160;2022-11-15T20:24:38;95796.56;;;8.83;100.00
13594;BME280;6449;47.666;9.160;2022-11-15T20:29:37;95783.41;;;8.84;100.00
13594;BME280;6449;47.666;9.160;2022-11-15T20:34:40;95777.47;;;8.82;100.00
13594;BME280;6449;47.666;9.160;2022-11-15T20:39:34;95774.69;;;8.74;100.00
13594;BME280;6449;47.666;9.160;2022-11-15T20:44:34;95755.31;;;8.77;100.00
13594;BME280;6449;47.666;9.160;2022-11-15T20:49:27;95760.81;;;8.83;100.00
13594;BME280;6449;47.666;9.160;2022-11-15T20:54:22;95751.91;;;8.86;100.00
13594;BME280;6449;47.666;9.160;2022-11-15T20:59:18;95762.84;;;8.70;100.00
13594;BME280;6449;47.666;9.160;2022-11-15T21:04:12;95751.34;;;8.52;100.00
13594;BME280;6449;47.666;9.160;2022-11-15T21:09:06;95746.59;;;8.66;100.00
13594;BME280;6449;47.666;9.160;2022-11-15T21:14:17;95745.66;;;8.77;100.00
13594;BME280;6449;47.666;9.160;2022-11-15T21:19:12;95744.69;;;8.78;100.00
13594;BME280;6449;47.666;9.160;2022-11-15T21:24:07;95738.78;;;8.76;100.00
13594;BME280;6449;47.666;9.160;2022-11-15T21:29:02;95734.41;;;8.86;100.00
13594;BME280;6449;47.666;9.160;2022-11-15T21:33:55;95738.13;;;8.84;100.00
13594;BME280;6449;47.666;9.160;2022-11-15T21:38:50;95737.16;;;8.95;100.00
13594;BME280;6449;47.666;9.160;2022-11-15T21:43:44;95735.41;;;9.05;100.00
13594;BME280;6449;47.666;9.160;2022-11-15T21:48:37;95756.47;;;9.03;100.00
13594;BME280;6449;47.666;9.160;2022-11-15T21:53:31;95764.88;;;9.07;100.00
13594;BME280;6449;47.666;9.160;2022-11-15T21:58:27;95761.72;;;9.13;100.00
13594;BME280;6449;47.666;9.160;2022-11-15T22:03:22;95764.06;;;9.26;100.00
13594;BME280;6449;47.666;9.160;2022-11-15T22:08:16;95759.50;;;9.37;100.00
13594;BME280;6449;47.666;9.160;2022-11-15T22:13:09;95754.56;;;9.34;100.00
13594;BME280;6449;47.666;9.160;2022-11-15T22:18:04;95765.03;;;9.34;100.00
13594;BME280;6449;47.666;9.160;2022-11-15T22:22:58;95765.44;;;9.30;100.00
13594;BME280;6449;47.666;9.160;2022-11-15T22:27:53;95755.94;;;9.29;100.00
13594;BME280;6449;47.666;9.160;2022-11-15T22:32:47;95745.34;;;9.30;100.00
13594;BME280;6449;47.666;9.160;2022-11-15T22:37:44;95743.28;;;9.34;100.00
13594;BME280;6449;47.666;9.160;2022-11-15T22:42:37;95749.50;;;9.33;100.00
13594;BME280;6449;47.666;9.160;2022-11-15T22:47:31;95756.06;;;9.37;100.00
13594;BME280;6449;47.666;9.160;2022-11-15T22:52:24;95759.94;;;9.42;100.00
13594;BME280;6449;47.666;9.160;2022-11-15T22:57:19;95762.81;;;9.30;100.00
13594;BME280;6449;47.666;9.160;2022-11-15T23:02:13;95760.63;;;9.35;100.00
13594;BME280;6449;47.666;9.160;2022-11-15T23:07:09;95760.34;;;9.28;100.00
13594;BME280;6449;47.666;9.160;2022-11-15T23:12:03;95761.44;;;9.35;100.00
13594;BME280;6449;47.666;9.160;2022-11-15T23:17:15;95764.63;;;9.29;100.00
13594;BME280;6449;47.666;9.160;2022-11-15T23:22:09;95767.94;;;9.22;100.00
13594;BME280;6449;47.666;9.160;2022-11-15T23:27:22;95762.56;;;9.23;100.00
13594;BME280;6449;47.666;9.160;2022-11-15T23:32:17;95756.34;;;9.24;100.00
13594;BME280;6449;47.666;9.160;2022-11-15T23:37:28;95754.56;;;9.25;100.00
13594;BME280;6449;47.666;9.160;2022-11-15T23:42:22;95759.22;;;9.21;100.00
13594;BME280;6449;47.666;9.160;2022-11-15T23:47:17;95767.94;;;9.22;100.00
13594;BME280;6449;47.666;9.160;2022-11-15T23:52:11;95758.28;;;9.22;100.00
13594;BME280;6449;47.666;9.160;2022-11-15T23:57:06;95763.38;;;9.24;100.00
